Time;durP1;ratioP1;P1;durP2;ratioP2;P2;SDS_P1;SDS_P2;PMS_P1;PMS_P2;Temp;Humidity;BMP_temperature;BMP_pressure;BME280_temperature;BME280_humidity;BME280_pressure;Samples;Min_cycle;Max_cycle;Signal;HPM_P1;HPM_P2
2021/08/14 00:02:10;;;;;;;7.93;7.13;;;21.20;99.90;;;;;;5048404;28;20460;-73
2021/08/14 00:04:37;;;;;;;8.98;7.10;;;21.10;99.90;;;;;;5052379;28;20042;-74
2021/08/14 00:07:04;;;;;;;7.28;6.43;;;21.10;99.90;;;;;;5052761;28;20451;-74
2021/08/14 00:09:33;;;;;;;7.60;6.72;;;21.00;99.90;;;;;;5052737;28;20048;-75
2021/08/14 00:12:02;;;;;;;7.88;6.70;;;21.00;99.90;;;;;;5043951;28;20056;-75
2021/08/14 00:14:29;;;;;;;6.95;6.25;;;20.90;99.90;;;;;;5038904;28;20041;-75
2021/08/14 00:16:55;;;;;;;9.20;5.88;;;20.90;99.90;;;;;;5043747;28;20049;-74
2021/08/14 00:19:22;;;;;;;8.50;6.47;;;20.90;99.90;;;;;;5051576;28;20049;-74
2021/08/14 00:21:48;;;;;;;8.05;5.72;;;20.80;99.90;;;;;;5044597;28;20434;-74
2021/08/14 00:24:15;;;;;;;6.63;5.18;;;20.80;99.90;;;;;;5034252;28;20045;-74
2021/08/14 00:26:42;;;;;;;9.48;6.80;;;20.60;99.90;;;;;;5051072;28;20044;-74
2021/08/14 00:29:10;;;;;;;5.55;5.05;;;20.60;99.90;;;;;;5052309;28;20460;-75
2021/08/14 00:31:36;;;;;;;5.38;4.55;;;20.60;99.90;;;;;;5040105;28;20041;-74
2021/08/14 00:34:03;;;;;;;8.25;5.82;;;20.60;99.90;;;;;;5050758;28;20075;-74
2021/08/14 00:36:29;;;;;;;7.15;5.13;;;20.50;99.90;;;;;;5051985;28;20456;-74
2021/08/14 00:38:57;;;;;;;4.75;4.32;;;20.50;99.90;;;;;;5051805;28;20044;-75
2021/08/14 00:41:24;;;;;;;4.80;4.35;;;20.40;99.90;;;;;;5051129;28;20041;-75
2021/08/14 00:43:51;;;;;;;8.30;4.63;;;20.40;99.90;;;;;;5046557;28;20092;-75
2021/08/14 00:46:20;;;;;;;7.50;5.07;;;20.40;99.90;;;;;;5032813;28;20046;-74
2021/08/14 00:48:47;;;;;;;4.20;3.90;;;20.30;99.90;;;;;;5031976;28;20056;-74
2021/08/14 00:51:14;;;;;;;5.55;4.65;;;20.30;99.90;;;;;;5047459;28;20545;-74
2021/08/14 00:53:40;;;;;;;6.85;4.50;;;20.30;99.90;;;;;;5040675;28;20049;-74
2021/08/14 00:56:14;;;;;;;5.63;4.22;;;20.30;99.90;;;;;;5034284;28;20080;-74
2021/08/14 00:58:41;;;;;;;6.57;4.60;;;20.30;99.90;;;;;;5050487;28;20094;-74
2021/08/14 01:01:08;;;;;;;6.65;4.32;;;20.30;99.90;;;;;;5052231;28;20045;-74
2021/08/14 01:03:38;;;;;;;6.88;4.60;;;20.20;99.90;;;;;;5052631;28;20041;-74
2021/08/14 01:06:04;;;;;;;5.00;4.50;;;20.20;99.90;;;;;;5050877;28;20098;-74
2021/08/14 01:08:31;;;;;;;6.40;4.10;;;20.10;99.90;;;;;;5051794;28;20083;-74
2021/08/14 01:10:57;;;;;;;6.68;5.35;;;20.20;99.90;;;;;;5051504;28;20049;-75
2021/08/14 01:13:25;;;;;;;4.70;4.30;;;20.10;99.90;;;;;;5049405;28;20563;-74
2021/08/14 01:15:52;;;;;;;5.22;4.50;;;20.10;99.90;;;;;;5052228;28;20049;-74
2021/08/14 01:18:19;;;;;;;6.57;5.20;;;20.00;99.90;;;;;;5032636;28;20115;-74
2021/08/14 01:20:48;;;;;;;5.05;4.50;;;20.00;99.90;;;;;;5043478;28;20050;-76
2021/08/14 01:23:15;;;;;;;6.55;5.07;;;20.00;99.90;;;;;;5032196;28;20609;-75
2021/08/14 01:25:43;;;;;;;7.72;5.18;;;20.00;99.90;;;;;;5033455;28;20107;-75
2021/08/14 01:28:13;;;;;;;4.85;4.38;;;19.90;99.90;;;;;;5034412;28;20104;-75
2021/08/14 01:30:42;;;;;;;8.07;4.90;;;19.90;99.90;;;;;;5047631;28;20049;-75
2021/08/14 01:33:09;;;;;;;5.53;4.05;;;19.90;99.90;;;;;;5032092;28;20050;-73
2021/08/14 01:35:38;;;;;;;5.10;4.60;;;19.80;99.90;;;;;;5045027;28;20052;-72
2021/08/14 01:38:05;;;;;;;6.72;4.60;;;19.80;99.90;;;;;;5033462;28;20489;-74
2021/08/14 01:40:33;;;;;;;5.68;4.70;;;19.80;99.90;;;;;;5032017;28;20052;-74
2021/08/14 01:42:59;;;;;;;7.30;5.30;;;19.70;99.90;;;;;;5051050;28;20045;-75
2021/08/14 01:45:27;;;;;;;7.53;5.00;;;19.60;99.90;;;;;;5051988;28;20045;-74
2021/08/14 01:47:54;;;;;;;6.40;5.00;;;19.60;99.90;;;;;;5049881;28;20045;-75
2021/08/14 01:50:21;;;;;;;5.93;5.18;;;19.50;99.90;;;;;;5050528;28;20459;-75
2021/08/14 01:52:47;;;;;;;8.00;4.85;;;19.30;99.90;;;;;;5051562;28;20037;-75
2021/08/14 01:55:14;;;;;;;7.40;4.93;;;19.30;99.90;;;;;;5048914;28;20045;-75
2021/08/14 01:57:41;;;;;;;6.20;5.45;;;19.30;99.90;;;;;;5031575;28;20045;-75
2021/08/14 02:00:09;;;;;;;5.85;5.25;;;19.20;99.90;;;;;;5031185;28;20418;-75
2021/08/14 02:02:37;;;;;;;7.63;4.53;;;19.10;99.90;;;;;;5031859;28;20045;-75
2021/08/14 02:05:04;;;;;;;6.63;5.10;;;19.10;99.90;;;;;;5047338;28;20055;-74
2021/08/14 02:07:31;;;;;;;6.65;5.18;;;19.00;99.90;;;;;;5034040;28;20099;-75
2021/08/14 02:09:58;;;;;;;6.85;5.50;;;18.90;99.90;;;;;;5031006;28;20060;-75
2021/08/14 02:12:24;;;;;;;6.70;5.20;;;18.80;99.90;;;;;;5032034;28;20049;-75
2021/08/14 02:14:51;;;;;;;6.55;4.78;;;18.80;99.90;;;;;;5031954;28;20548;-75
2021/08/14 02:17:18;;;;;;;7.35;5.57;;;18.80;99.90;;;;;;5031697;28;20050;-74
2021/08/14 02:19:46;;;;;;;10.35;6.10;;;18.70;99.90;;;;;;5037353;28;20448;-74
2021/08/14 02:22:12;;;;;;;8.85;6.10;;;18.70;99.90;;;;;;5046932;28;20090;-74
2021/08/14 02:24:39;;;;;;;6.53;4.70;;;18.70;99.90;;;;;;5054930;28;20041;-74
2021/08/14 02:27:05;;;;;;;6.57;5.07;;;18.60;99.90;;;;;;5054589;28;20041;-75
2021/08/14 02:29:33;;;;;;;9.68;4.90;;;18.60;99.90;;;;;;5054235;28;20049;-75
2021/08/14 02:32:00;;;;;;;5.60;4.28;;;18.50;99.90;;;;;;5049267;28;20041;-74
2021/08/14 02:34:27;;;;;;;4.72;4.18;;;18.50;99.90;;;;;;5035023;28;20049;-75
2021/08/14 02:36:55;;;;;;;5.13;4.60;;;18.50;99.90;;;;;;5034981;28;20107;-74
2021/08/14 02:39:21;;;;;;;6.13;5.25;;;18.40;99.90;;;;;;5034327;28;20042;-74
2021/08/14 02:41:48;;;;;;;10.52;6.93;;;18.40;99.90;;;;;;5034992;28;20080;-74
2021/08/14 02:44:14;;;;;;;27.75;18.85;;;18.30;99.90;;;;;;5034943;28;20041;-75
2021/08/14 02:46:41;;;;;;;12.45;8.23;;;18.30;99.90;;;;;;5060109;28;20113;-75
2021/08/14 02:49:08;;;;;;;9.77;6.55;;;18.30;99.90;;;;;;5074335;28;20049;-74
2021/08/14 02:51:34;;;;;;;6.00;5.03;;;18.30;99.90;;;;;;5059371;28;20038;-74
2021/08/14 02:54:02;;;;;;;8.48;5.40;;;18.30;99.90;;;;;;5034584;28;20497;-75
2021/08/14 02:56:29;;;;;;;8.75;5.25;;;18.30;99.90;;;;;;5034817;28;20092;-75
2021/08/14 02:58:55;;;;;;;6.07;5.00;;;18.20;99.90;;;;;;5034103;28;20485;-74
2021/08/14 03:01:22;;;;;;;5.65;5.15;;;18.20;99.90;;;;;;5044904;28;20045;-75
2021/08/14 03:03:48;;;;;;;5.82;4.78;;;18.20;99.90;;;;;;5053106;28;20045;-75
2021/08/14 03:06:26;;;;;;;5.75;5.18;;;18.10;99.90;;;;;;5053617;28;20037;-74
2021/08/14 03:08:53;;;;;;;5.35;4.82;;;18.00;99.90;;;;;;5053500;28;20114;-74
2021/08/14 03:11:21;;;;;;;6.45;5.55;;;18.00;99.90;;;;;;5036359;28;20045;-75
2021/08/14 03:13:48;;;;;;;7.13;5.57;;;17.90;99.90;;;;;;5050354;28;20041;-75
2021/08/14 03:16:14;;;;;;;7.72;5.45;;;17.90;99.90;;;;;;5054131;28;20045;-75
2021/08/14 03:18:41;;;;;;;6.13;5.25;;;17.90;99.90;;;;;;5053063;28;20067;-75
2021/08/14 03:21:08;;;;;;;5.35;4.85;;;17.90;99.90;;;;;;5053615;28;20049;-76
2021/08/14 03:23:34;;;;;;;6.38;5.15;;;18.00;99.90;;;;;;5054229;28;20057;-74
2021/08/14 03:26:01;;;;;;;6.30;4.90;;;18.00;99.90;;;;;;5054066;28;20091;-74
2021/08/14 03:28:29;;;;;;;5.38;4.88;;;18.00;99.90;;;;;;5052417;28;20044;-75
2021/08/14 03:30:55;;;;;;;6.53;4.85;;;18.00;99.90;;;;;;5049948;28;20091;-74
2021/08/14 03:33:22;;;;;;;5.13;4.60;;;18.00;99.90;;;;;;5032807;28;20053;-75
2021/08/14 03:35:48;;;;;;;7.40;5.57;;;18.10;99.90;;;;;;5042015;28;20103;-74
2021/08/14 03:38:15;;;;;;;6.10;4.40;;;18.10;99.90;;;;;;5053298;28;20048;-74
2021/08/14 03:40:42;;;;;;;8.45;4.03;;;18.10;99.90;;;;;;5047107;28;20072;-74
2021/08/14 03:43:08;;;;;;;6.78;4.82;;;18.00;99.90;;;;;;5053618;28;20111;-75
2021/08/14 03:45:36;;;;;;;6.60;4.30;;;18.00;99.90;;;;;;5040326;28;20080;-75
2021/08/14 03:48:03;;;;;;;6.28;4.50;;;18.00;99.90;;;;;;5033684;28;20041;-75
2021/08/14 03:50:29;;;;;;;7.00;4.40;;;18.00;99.90;;;;;;5045333;28;20110;-76
2021/08/14 03:52:56;;;;;;;6.05;4.05;;;18.00;99.90;;;;;;5053722;28;20386;-76
2021/08/14 03:55:23;;;;;;;6.43;4.50;;;18.00;99.90;;;;;;5041862;28;20045;-76
2021/08/14 03:57:49;;;;;;;6.72;4.80;;;18.00;99.90;;;;;;5053106;28;20095;-76
2021/08/14 04:00:17;;;;;;;7.05;4.70;;;18.00;99.90;;;;;;5052225;28;20529;-75
2021/08/14 04:02:45;;;;;;;8.10;4.13;;;18.00;99.90;;;;;;5052981;28;20106;-75
2021/08/14 04:05:11;;;;;;;5.10;4.07;;;17.90;99.90;;;;;;5047878;28;20140;-74
2021/08/14 04:07:38;;;;;;;6.70;4.75;;;17.80;99.90;;;;;;5035674;28;20042;-74
2021/08/14 04:10:05;;;;;;;6.53;4.47;;;17.80;99.90;;;;;;5048729;28;20095;-74
2021/08/14 04:12:32;;;;;;;5.63;4.20;;;17.80;99.90;;;;;;5053175;28;20045;-75
2021/08/14 04:14:59;;;;;;;6.88;4.30;;;17.90;99.90;;;;;;5053013;28;20091;-75
2021/08/14 04:17:26;;;;;;;8.32;4.90;;;17.90;99.90;;;;;;5047224;28;20045;-75
2021/08/14 04:19:54;;;;;;;10.52;5.45;;;17.90;99.90;;;;;;5035973;28;20076;-74
2021/08/14 04:22:20;;;;;;;4.85;4.40;;;17.90;99.90;;;;;;5048803;28;20041;-74
2021/08/14 04:24:47;;;;;;;6.85;4.22;;;17.80;99.90;;;;;;5046393;28;20095;-73
2021/08/14 04:27:13;;;;;;;6.95;5.32;;;17.60;99.90;;;;;;5052528;28;20485;-74
2021/08/14 04:29:40;;;;;;;5.35;4.40;;;17.60;99.90;;;;;;5051519;28;20464;-75
2021/08/14 04:32:08;;;;;;;4.88;4.47;;;17.60;99.90;;;;;;5052592;28;20041;-74
2021/08/14 04:34:34;;;;;;;6.07;4.47;;;17.60;99.90;;;;;;5036843;28;20053;-74
2021/08/14 04:37:03;;;;;;;5.80;5.22;;;17.60;99.90;;;;;;5032478;28;20091;-74
2021/08/14 04:39:29;;;;;;;4.70;4.28;;;17.70;99.90;;;;;;5032983;28;20076;-74
2021/08/14 04:41:56;;;;;;;7.05;4.68;;;17.70;99.90;;;;;;5049723;28;20075;-74
2021/08/14 04:44:22;;;;;;;7.18;4.90;;;17.70;99.90;;;;;;5031981;28;20490;-74
2021/08/14 04:46:49;;;;;;;6.05;4.38;;;17.70;99.90;;;;;;5034102;28;20115;-74
2021/08/14 04:49:16;;;;;;;6.22;5.35;;;17.70;99.90;;;;;;5042889;28;20116;-73
2021/08/14 04:51:42;;;;;;;5.80;4.30;;;17.60;99.90;;;;;;5038094;28;20049;-74
2021/08/14 04:54:10;;;;;;;6.80;4.53;;;17.70;99.90;;;;;;5052163;28;20045;-74
2021/08/14 04:56:37;;;;;;;10.20;4.75;;;17.70;99.90;;;;;;5049824;28;20045;-74
2021/08/14 04:59:04;;;;;;;29.10;17.35;;;17.60;99.90;;;;;;5051632;28;20049;-74
2021/08/14 05:01:30;;;;;;;31.60;20.83;;;17.70;99.90;;;;;;5051738;28;20052;-75
2021/08/14 05:03:57;;;;;;;18.15;9.90;;;17.70;99.90;;;;;;5049318;28;20045;-74
2021/08/14 05:06:24;;;;;;;30.77;19.88;;;17.70;99.90;;;;;;5042102;28;20045;-74
2021/08/14 05:08:50;;;;;;;28.48;16.30;;;17.70;99.90;;;;;;5031496;28;20096;-74
2021/08/14 05:11:18;;;;;;;23.50;13.27;;;17.80;99.90;;;;;;5037939;28;20045;-74
2021/08/14 05:13:45;;;;;;;64.97;34.95;;;17.70;99.90;;;;;;5052355;28;20049;-74
2021/08/14 05:16:11;;;;;;;44.55;26.55;;;17.90;99.90;;;;;;5051862;28;20044;-74
2021/08/14 05:18:38;;;;;;;43.45;25.80;;;18.00;99.90;;;;;;5038686;28;20040;-74
2021/08/14 05:21:05;;;;;;;13.07;8.75;;;18.20;99.90;;;;;;5050829;28;20080;-74
2021/08/14 05:23:31;;;;;;;11.82;6.55;;;18.30;99.90;;;;;;5051670;28;20390;-74
2021/08/14 05:25:58;;;;;;;12.18;9.00;;;18.40;99.90;;;;;;5051121;28;20053;-74
2021/08/14 05:28:26;;;;;;;7.78;5.30;;;18.50;99.90;;;;;;5050068;28;20056;-75
2021/08/14 05:30:52;;;;;;;7.07;5.35;;;18.50;99.90;;;;;;5031673;28;20045;-75
2021/08/14 05:33:19;;;;;;;9.45;6.25;;;18.70;99.90;;;;;;5040158;28;20049;-75
2021/08/14 05:35:45;;;;;;;5.85;4.80;;;18.80;99.90;;;;;;5040045;28;20099;-75
2021/08/14 05:38:12;;;;;;;10.30;5.97;;;18.80;99.90;;;;;;5048679;28;20471;-74
2021/08/14 05:40:39;;;;;;;13.80;6.70;;;18.90;99.90;;;;;;5036468;28;20041;-74
2021/08/14 05:43:05;;;;;;;17.60;11.50;;;19.00;99.90;;;;;;5051340;28;20041;-74
2021/08/14 05:45:33;;;;;;;16.05;8.20;;;19.10;99.90;;;;;;5051258;28;20041;-74
2021/08/14 05:48:03;;;;;;;9.73;6.55;;;19.20;99.90;;;;;;5041775;28;20050;-74
2021/08/14 05:50:29;;;;;;;12.77;7.32;;;19.30;99.90;;;;;;5031948;28;20045;-74
2021/08/14 05:52:56;;;;;;;8.48;5.13;;;19.40;99.90;;;;;;5051499;28;20056;-74
2021/08/14 05:55:23;;;;;;;12.75;8.75;;;19.40;99.90;;;;;;5048798;28;20075;-73
2021/08/14 05:57:50;;;;;;;6.75;5.65;;;19.60;99.90;;;;;;5057288;28;20048;-73
2021/08/14 06:00:17;;;;;;;8.60;5.47;;;19.90;99.90;;;;;;5055832;28;20106;-74
2021/08/14 06:02:45;;;;;;;14.20;8.60;;;20.00;99.90;;;;;;5056067;28;20059;-74
2021/08/14 06:05:12;;;;;;;9.35;5.05;;;20.20;99.90;;;;;;5043353;28;20489;-74
2021/08/14 06:07:38;;;;;;;7.38;4.35;;;20.30;99.90;;;;;;5056420;28;20341;-74
2021/08/14 06:10:06;;;;;;;5.32;4.45;;;20.40;99.90;;;;;;5055713;28;20052;-76
2021/08/14 06:12:33;;;;;;;6.20;5.25;;;20.70;99.90;;;;;;5039208;28;20050;-74
2021/08/14 06:14:59;;;;;;;29.75;16.95;;;21.00;99.90;;;;;;5034948;28;20536;-75
2021/08/14 06:17:26;;;;;;;13.95;9.65;;;21.40;99.90;;;;;;5035003;28;20099;-75
2021/08/14 06:19:54;;;;;;;7.25;4.78;;;21.70;99.90;;;;;;5048313;28;20409;-74
2021/08/14 06:22:21;;;;;;;9.73;5.25;;;22.00;99.90;;;;;;5054782;28;20041;-74
2021/08/14 06:24:47;;;;;;;8.18;4.20;;;22.40;99.90;;;;;;5045053;28;20516;-74
2021/08/14 06:27:14;;;;;;;5.55;3.25;;;22.90;99.90;;;;;;5034708;28;20080;-75
2021/08/14 06:29:40;;;;;;;11.10;5.40;;;22.70;99.90;;;;;;5034015;28;20046;-75
2021/08/14 06:32:07;;;;;;;6.63;3.88;;;23.30;99.90;;;;;;5034435;28;20460;-76
2021/08/14 06:34:34;;;;;;;8.70;4.70;;;23.60;99.90;;;;;;5051506;28;20045;-75
2021/08/14 06:37:02;;;;;;;12.55;4.60;;;23.30;99.90;;;;;;5052051;28;20344;-75
2021/08/14 06:39:29;;;;;;;7.13;3.10;;;23.20;99.90;;;;;;5053930;28;20041;-75
2021/08/14 06:41:55;;;;;;;10.35;4.75;;;23.00;99.90;;;;;;5053730;28;20095;-75
2021/08/14 06:44:22;;;;;;;11.43;4.68;;;22.90;99.90;;;;;;5034455;28;20045;-75
2021/08/14 06:46:49;;;;;;;6.90;3.80;;;22.50;99.90;;;;;;5034501;28;20045;-74
2021/08/14 06:49:15;;;;;;;4.40;2.63;;;22.60;99.90;;;;;;5042491;28;20102;-74
2021/08/14 06:51:42;;;;;;;19.05;9.60;;;22.40;99.90;;;;;;5053565;28;20521;-74
2021/08/14 06:54:10;;;;;;;9.70;4.53;;;22.40;99.90;;;;;;5053077;28;20045;-75
2021/08/14 06:56:36;;;;;;;5.15;2.95;;;22.80;99.90;;;;;;5040510;28;20045;-75
2021/08/14 06:59:03;;;;;;;4.55;2.60;;;22.80;99.90;;;;;;5036243;28;20103;-75
2021/08/14 07:01:30;;;;;;;9.82;3.30;;;23.00;99.90;;;;;;5053623;28;20049;-75
2021/08/14 07:03:56;;;;;;;7.97;3.63;;;23.10;99.90;;;;;;5053403;28;20059;-75
2021/08/14 07:06:25;;;;;;;6.88;3.42;;;23.60;99.90;;;;;;5041285;28;20567;-75
2021/08/14 07:08:52;;;;;;;5.90;2.78;;;24.20;99.90;;;;;;5050237;28;20041;-74
2021/08/14 07:11:21;;;;;;;11.30;6.38;;;24.50;99.90;;;;;;5053845;28;20045;-74
2021/08/14 07:13:49;;;;;;;6.93;2.95;;;24.40;99.90;;;;;;5036710;28;20077;-74
2021/08/14 07:16:16;;;;;;;7.35;3.60;;;24.50;99.90;;;;;;5043506;28;20075;-74
2021/08/14 07:18:43;;;;;;;5.80;2.65;;;24.80;99.90;;;;;;5044451;28;20091;-74
2021/08/14 07:21:10;;;;;;;6.32;3.25;;;24.50;98.80;;;;;;5045372;28;20045;-74
2021/08/14 07:23:36;;;;;;;4.68;2.97;;;23.60;99.90;;;;;;5053696;28;20114;-75
2021/08/14 07:26:03;;;;;;;6.75;3.03;;;23.50;99.90;;;;;;5053871;28;20045;-75
2021/08/14 07:28:32;;;;;;;5.30;2.50;;;23.80;99.90;;;;;;5053090;28;20053;-74
2021/08/14 07:30:58;;;;;;;6.20;3.17;;;23.50;99.90;;;;;;5048950;28;20069;-74
2021/08/14 07:33:25;;;;;;;8.30;3.50;;;24.00;99.00;;;;;;5053490;28;20045;-74
2021/08/14 07:35:52;;;;;;;6.97;4.03;;;24.40;98.80;;;;;;5050444;28;20394;-75
2021/08/14 07:38:19;;;;;;;6.05;3.70;;;25.10;97.80;;;;;;5052957;28;20041;-75
2021/08/14 07:40:45;;;;;;;5.22;2.30;;;25.50;96.70;;;;;;5053154;28;20452;-74
2021/08/14 07:43:12;;;;;;;5.55;2.60;;;26.00;93.00;;;;;;5051575;28;20481;-74
2021/08/14 07:45:40;;;;;;;7.75;2.47;;;25.50;93.50;;;;;;5053014;28;20045;-74
2021/08/14 07:48:08;;;;;;;7.30;3.28;;;25.70;91.10;;;;;;5033298;28;20049;-74
2021/08/14 07:50:36;;;;;;;4.97;2.10;;;25.80;92.70;;;;;;5032899;28;20042;-74
2021/08/14 07:53:03;;;;;;;3.58;2.85;;;25.90;91.70;;;;;;5034169;28;20110;-74
2021/08/14 07:55:30;;;;;;;2.95;1.90;;;26.60;91.10;;;;;;5032924;28;20052;-73
2021/08/14 07:57:57;;;;;;;5.80;2.78;;;26.60;87.60;;;;;;5042556;28;20079;-73
2021/08/14 08:00:25;;;;;;;5.18;2.50;;;26.60;90.20;;;;;;5051406;28;20045;-73
2021/08/14 08:02:54;;;;;;;4.95;2.25;;;27.20;87.50;;;;;;5048241;28;20119;-73
2021/08/14 08:05:21;;;;;;;4.82;2.10;;;27.40;84.20;;;;;;5051125;28;20087;-73
2021/08/14 08:07:49;;;;;;;6.70;3.25;;;26.60;84.50;;;;;;5052690;28;20056;-73
2021/08/14 08:10:17;;;;;;;6.57;2.70;;;25.50;89.70;;;;;;5051969;28;20106;-73
2021/08/14 08:12:44;;;;;;;3.92;2.15;;;26.00;90.20;;;;;;5048277;28;20048;-73
2021/08/14 08:15:13;;;;;;;3.75;2.10;;;26.70;83.40;;;;;;5039031;28;20100;-74
2021/08/14 08:17:40;;;;;;;5.60;2.15;;;27.00;83.90;;;;;;5032516;28;20414;-73
2021/08/14 08:20:10;;;;;;;5.43;2.40;;;27.10;82.40;;;;;;5031455;28;20096;-73
2021/08/14 08:22:37;;;;;;;5.00;2.33;;;27.10;80.70;;;;;;5039891;28;20103;-73
2021/08/14 08:25:04;;;;;;;3.20;1.63;;;27.20;79.10;;;;;;5049838;28;20111;-74
2021/08/14 08:27:31;;;;;;;5.05;2.03;;;27.80;79.20;;;;;;5040968;28;20455;-74
2021/08/14 08:29:58;;;;;;;2.72;2.10;;;28.30;79.00;;;;;;5051095;28;20041;-73
2021/08/14 08:32:24;;;;;;;4.63;2.20;;;28.90;74.10;;;;;;5052057;28;20122;-73
2021/08/14 08:34:51;;;;;;;3.53;2.05;;;29.00;73.10;;;;;;5051598;28;20399;-73
2021/08/14 08:37:19;;;;;;;2.97;1.90;;;28.50;70.40;;;;;;5047147;28;20041;-73
2021/08/14 08:39:45;;;;;;;4.53;1.80;;;28.00;71.00;;;;;;5031447;28;20556;-73
2021/08/14 08:42:12;;;;;;;8.20;2.75;;;27.40;73.90;;;;;;5038328;28;20091;-73
2021/08/14 08:44:39;;;;;;;4.20;2.88;;;28.10;73.30;;;;;;5040164;28;20079;-73
2021/08/14 08:47:08;;;;;;;8.00;3.05;;;27.70;70.70;;;;;;5051291;28;20045;-74
2021/08/14 08:49:35;;;;;;;7.10;3.40;;;28.70;70.00;;;;;;5051347;28;20045;-73
2021/08/14 08:52:01;;;;;;;3.88;2.15;;;28.70;69.00;;;;;;5049812;28;20451;-74
2021/08/14 08:54:29;;;;;;;2.97;2.20;;;29.30;66.80;;;;;;5040704;28;20042;-74
2021/08/14 08:56:56;;;;;;;2.55;1.65;;;30.00;65.60;;;;;;5049424;28;20562;-74
2021/08/14 08:59:22;;;;;;;8.48;3.60;;;30.00;62.40;;;;;;5050793;28;20460;-74
2021/08/14 09:01:49;;;;;;;5.80;3.17;;;30.10;64.50;;;;;;5051632;28;20041;-74
2021/08/14 09:04:24;;;;;;;3.28;2.35;;;30.40;61.50;;;;;;5051620;28;20481;-74
2021/08/14 09:06:52;;;;;;;2.97;2.00;;;29.50;62.60;;;;;;5050123;28;20045;-74
2021/08/14 09:09:25;;;;;;;4.20;2.13;;;28.20;63.50;;;;;;5050314;28;20447;-73
2021/08/14 09:11:55;;;;;;;4.30;2.30;;;28.60;63.50;;;;;;5032217;28;20049;-74
2021/08/14 09:14:22;;;;;;;3.70;2.70;;;29.70;63.20;;;;;;5051280;28;20120;-71
2021/08/14 09:17:04;;;;;;;5.68;3.97;;;29.50;62.50;;;;;;5055992;28;20044;-73
2021/08/14 09:19:31;;;;;;;3.35;2.13;;;30.10;62.80;;;;;;5052217;28;20048;-74
2021/08/14 09:21:57;;;;;;;4.00;2.35;;;30.90;61.80;;;;;;5050358;28;20045;-75
2021/08/14 09:24:32;;;;;;;6.95;4.50;;;31.50;59.60;;;;;;5035452;28;20096;-76
2021/08/14 09:27:02;;;;;;;3.45;3.08;;;31.80;58.60;;;;;;5038616;28;20045;-75
2021/08/14 09:29:35;;;;;;;5.53;3.37;;;30.50;60.70;;;;;;5030792;28;20128;-76
2021/08/14 09:32:02;;;;;;;4.80;2.83;;;30.80;61.00;;;;;;5035654;28;20098;-70
2021/08/14 09:34:29;;;;;;;4.95;2.63;;;30.70;59.60;;;;;;5035665;28;20131;-72
2021/08/14 09:37:00;;;;;;;3.22;2.47;;;30.70;60.00;;;;;;5035513;28;20057;-75
2021/08/14 09:39:27;;;;;;;3.53;2.55;;;30.60;59.40;;;;;;5042472;28;20497;-71
2021/08/14 09:42:03;;;;;;;9.18;3.42;;;30.70;59.60;;;;;;5051180;28;20493;-76
2021/08/14 09:44:30;;;;;;;2.88;2.22;;;30.60;59.20;;;;;;5044245;28;20175;-77
2021/08/14 09:46:56;;;;;;;5.13;3.15;;;29.70;60.70;;;;;;5036117;28;20053;-76
2021/08/14 09:49:24;;;;;;;3.65;2.85;;;28.50;62.80;;;;;;5035242;28;20115;-76
2021/08/14 09:51:50;;;;;;;5.10;2.80;;;28.10;64.50;;;;;;5041322;28;20056;-76
2021/08/14 09:54:17;;;;;;;3.70;3.08;;;28.00;66.20;;;;;;5075393;28;20052;-76
2021/08/14 09:56:45;;;;;;;3.45;2.00;;;28.80;64.70;;;;;;5066744;28;20057;-76
2021/08/14 09:59:15;;;;;;;4.32;2.60;;;29.20;62.00;;;;;;5055207;28;20049;-75
2021/08/14 10:01:42;;;;;;;3.15;2.47;;;28.40;61.70;;;;;;5062522;28;20469;-75
2021/08/14 10:04:10;;;;;;;6.05;2.47;;;28.20;62.70;;;;;;5058787;28;20049;-75
2021/08/14 10:06:39;;;;;;;2.53;2.03;;;28.10;63.70;;;;;;5055215;28;20509;-75
2021/08/14 10:09:07;;;;;;;4.40;2.45;;;28.20;65.00;;;;;;5056824;28;20199;-76
2021/08/14 10:11:35;;;;;;;3.40;2.42;;;28.70;62.70;;;;;;5038477;28;20075;-75
2021/08/14 10:14:02;;;;;;;4.93;2.25;;;28.60;61.90;;;;;;5055624;28;20574;-75
2021/08/14 10:16:30;;;;;;;5.63;2.97;;;28.90;62.50;;;;;;5055442;28;20076;-74
2021/08/14 10:18:58;;;;;;;5.05;2.33;;;29.40;61.50;;;;;;5054847;28;20048;-76
2021/08/14 10:21:26;;;;;;;4.25;2.08;;;30.10;60.50;;;;;;5054657;28;20049;-76
2021/08/14 10:23:56;;;;;;;5.93;2.67;;;30.80;58.60;;;;;;5055311;28;20144;-76
2021/08/14 10:26:28;;;;;;;5.65;2.38;;;30.60;58.90;;;;;;5055574;28;20132;-76
2021/08/14 10:28:57;;;;;;;2.92;2.67;;;30.90;57.80;;;;;;5054958;28;20416;-76
2021/08/14 10:31:48;;;;;;;5.28;2.85;;;30.50;57.80;;;;;;5054981;28;20539;-76
2021/08/14 10:34:34;;;;;;;3.67;2.00;;;31.00;59.40;;;;;;5054985;28;20049;-75
2021/08/14 10:37:02;;;;;;;3.65;2.30;;;30.30;57.60;;;;;;5054955;28;20386;-74
2021/08/14 10:39:31;;;;;;;2.83;2.25;;;29.40;58.30;;;;;;5054641;28;20045;-75
2021/08/14 10:41:59;;;;;;;4.78;2.10;;;29.90;58.60;;;;;;5054092;28;20148;-75
2021/08/14 10:44:37;;;;;;;2.92;2.25;;;29.90;59.10;;;;;;5054909;28;20053;-75
2021/08/14 10:47:06;;;;;;;5.95;2.63;;;29.70;59.00;;;;;;5055347;28;20098;-75
2021/08/14 10:49:43;;;;;;;4.85;2.55;;;30.60;58.10;;;;;;5054104;28;20041;-75
2021/08/14 10:52:14;;;;;;;3.58;2.40;;;30.50;57.90;;;;;;5054509;28;20049;-75
2021/08/14 10:55:10;;;;;;;5.07;2.00;;;31.30;57.20;;;;;;5054415;28;20049;-76
2021/08/14 10:57:42;;;;;;;2.53;2.03;;;32.40;55.40;;;;;;5034904;28;20053;-77
2021/08/14 11:00:22;;;;;;;3.63;2.13;;;31.90;54.00;;;;;;5033862;28;20114;-76
2021/08/14 11:03:19;;;;;;;3.05;2.53;;;31.80;55.00;;;;;;5034773;28;20437;-75
2021/08/14 11:05:47;;;;;;;1.77;1.58;;;31.20;55.30;;;;;;5034431;28;20053;-76
2021/08/14 11:08:30;;;;;;;3.17;1.75;;;31.60;54.90;;;;;;5034027;28;20045;-75
2021/08/14 11:10:58;;;;;;;4.05;2.22;;;32.60;54.10;;;;;;5047563;28;20052;-75
2021/08/14 11:14:08;;;;;;;4.07;1.92;;;33.40;51.50;;;;;;5053956;28;20107;-76
2021/08/14 11:16:58;;;;;;;2.85;2.17;;;33.30;51.50;;;;;;5054020;28;20420;-77
2021/08/14 11:19:49;;;;;;;4.33;2.03;;;33.10;51.00;;;;;;5053180;28;20128;-76
2021/08/14 11:22:28;;;;;;;3.10;1.58;;;32.70;52.00;;;;;;5053814;28;20114;-76
2021/08/14 11:24:56;;;;;;;3.70;1.80;;;32.40;51.30;;;;;;5053780;28;20132;-76
2021/08/14 11:27:25;;;;;;;2.78;1.98;;;31.20;52.90;;;;;;5053921;28;20049;-75
2021/08/14 11:29:53;;;;;;;2.25;2.05;;;32.60;52.70;;;;;;5053061;28;20452;-75
2021/08/14 11:32:20;;;;;;;6.22;2.13;;;32.90;50.30;;;;;;5052882;28;20049;-77
2021/08/14 11:34:51;;;;;;;3.20;1.90;;;32.00;51.20;;;;;;5053489;28;20053;-76
2021/08/14 11:37:18;;;;;;;;;;;32.00;50.80;;;;;;5053400;28;20049;-75
2021/08/14 11:39:45;;;;;;;4.75;1.70;;;31.60;51.40;;;;;;5052377;28;19920;-76
2021/08/14 11:42:12;;;;;;;3.88;1.75;;;32.00;52.10;;;;;;5053000;28;20130;-76
2021/08/14 11:44:40;;;;;;;3.42;1.90;;;32.60;50.60;;;;;;5053204;28;20056;-76
2021/08/14 11:47:09;;;;;;;2.45;1.60;;;33.10;50.90;;;;;;5053358;28;20044;-76
2021/08/14 11:49:54;;;;;;;3.10;2.58;;;31.80;49.90;;;;;;5052227;28;20175;-76
2021/08/14 11:52:22;;;;;;;2.88;2.20;;;32.40;50.60;;;;;;5052663;28;20118;-76
2021/08/14 11:54:56;;;;;;;2.05;1.85;;;32.40;50.60;;;;;;5051563;28;20220;-76
2021/08/14 11:57:28;;;;;;;6.05;2.78;;;32.00;50.90;;;;;;5053450;28;20136;-76
2021/08/14 11:59:54;;;;;;;2.03;1.90;;;32.40;50.20;;;;;;5053371;28;20098;-76
2021/08/14 12:02:24;;;;;;;5.00;2.05;;;32.80;49.50;;;;;;5053528;28;20075;-76
2021/08/14 12:04:52;;;;;;;3.55;2.03;;;31.20;50.00;;;;;;5053179;28;20041;-77
2021/08/14 12:07:19;;;;;;;2.78;2.00;;;31.80;50.10;;;;;;5053587;28;20076;-76
2021/08/14 12:09:46;;;;;;;3.63;2.17;;;31.70;50.70;;;;;;5052592;28;20542;-76
2021/08/14 12:12:18;;;;;;;3.22;2.30;;;32.50;51.20;;;;;;5052886;28;20045;-76
2021/08/14 12:14:44;;;;;;;3.55;2.50;;;33.00;49.20;;;;;;5054509;28;20269;-76
2021/08/14 12:17:11;;;;;;;2.67;2.13;;;32.90;49.60;;;;;;5054705;28;20049;-76
2021/08/14 12:19:48;;;;;;;4.68;2.00;;;33.50;47.90;;;;;;5053039;28;20045;-76
2021/08/14 12:22:16;;;;;;;2.70;1.88;;;33.20;47.40;;;;;;5054313;28;20091;-75
2021/08/14 12:24:44;;;;;;;4.03;2.90;;;31.30;49.60;;;;;;5053997;28;20071;-76
2021/08/14 12:27:29;;;;;;;2.95;2.45;;;30.20;51.40;;;;;;5054202;28;20045;-75
2021/08/14 12:30:15;;;;;;;4.30;2.20;;;30.60;51.90;;;;;;5054373;28;20040;-76
2021/08/14 12:32:42;;;;;;;2.88;1.90;;;29.70;52.60;;;;;;5053893;28;20397;-76
2021/08/14 12:35:16;;;;;;;4.05;2.17;;;30.50;51.90;;;;;;5053509;28;20048;-76
2021/08/14 12:37:45;;;;;;;2.92;1.70;;;31.70;50.60;;;;;;5054502;28;20056;-76
2021/08/14 12:40:12;;;;;;;3.97;2.05;;;31.20;50.70;;;;;;5054323;28;20094;-76
2021/08/14 12:42:39;;;;;;;3.97;1.90;;;31.20;51.50;;;;;;5053691;28;20053;-76
2021/08/14 12:45:17;;;;;;;2.75;2.13;;;32.00;51.30;;;;;;5054253;28;20073;-77
2021/08/14 12:47:46;;;;;;;2.38;1.95;;;31.40;51.70;;;;;;5053386;28;20045;-77
2021/08/14 12:50:22;;;;;;;3.08;2.35;;;30.80;51.60;;;;;;5052806;28;20037;-76
2021/08/14 12:52:59;;;;;;;4.47;2.22;;;29.90;53.20;;;;;;5053875;28;20049;-76